createdAt,value
2019-02-21T00:02:08.874Z,-21253.74
2019-02-21T00:04:37.191Z,-21237.32
2019-02-21T00:07:05.526Z,-21249.07
2019-02-21T00:09:33.816Z,-21257.00
2019-02-21T00:12:02.146Z,-21257.71
2019-02-21T00:14:30.425Z,-21260.26
2019-02-21T00:16:58.900Z,-21246.95
2019-02-21T00:19:27.159Z,-21244.96
2019-02-21T00:21:55.489Z,-21244.25
2019-02-21T00:24:23.791Z,-21249.35
2019-02-21T00:26:52.060Z,-21245.81
2019-02-21T00:29:20.394Z,-21242.56
2019-02-21T00:31:48.679Z,-21248.51
2019-02-21T00:34:16.968Z,-21244.68
2019-02-21T00:36:45.543Z,-21238.87
2019-02-21T00:39:13.825Z,-21241.85
2019-02-21T00:41:42.143Z,-21235.90
2019-02-21T00:44:10.443Z,-21238.31
2019-02-21T00:46:38.743Z,-21235.34
2019-02-21T00:49:07.056Z,-21228.25
2019-02-21T00:51:35.334Z,-21220.46
2019-02-21T00:54:03.614Z,-21231.51
2019-02-21T00:56:31.910Z,-21241.28
2019-02-21T00:59:00.226Z,-21238.45
2019-02-21T01:01:28.669Z,-21256.29
2019-02-21T01:03:56.933Z,-21214.92
2019-02-21T01:06:25.208Z,-21232.50
2019-02-21T01:08:53.524Z,-21240.86
2019-02-21T01:11:21.808Z,-21213.79
2019-02-21T01:13:50.104Z,-21227.26
2019-02-21T01:16:18.387Z,-21230.52
2019-02-21T01:18:46.774Z,-21221.30
2019-02-21T01:21:19.278Z,-21228.53
2019-02-21T01:23:51.647Z,-21211.52
2019-02-21T01:26:24.386Z,-21200.32
2019-02-21T01:28:52.721Z,-21203.58
2019-02-21T01:31:22.679Z,-21208.12
2019-02-21T01:33:50.945Z,-21198.89
2019-02-21T01:36:22.336Z,-21195.21
2019-02-21T01:38:50.620Z,-21198.19
2019-02-21T01:41:21.145Z,-21187.12
2019-02-21T01:43:49.760Z,-21197.62
2019-02-21T01:46:21.523Z,-21191.09
2019-02-21T01:48:54.679Z,-21178.03
2019-02-21T01:51:26.249Z,-21193.08
2019-02-21T01:53:58.908Z,-21194.78
2019-02-21T01:56:29.272Z,-21193.79
2019-02-21T01:59:02.184Z,-21216.34
2019-02-21T02:01:30.873Z,-21193.51
2019-02-21T02:04:02.764Z,-21184.56
2019-02-21T02:06:51.251Z,-21214.21
2019-02-21T02:09:19.602Z,-21204.86
2019-02-21T02:11:51.605Z,-21220.31
2019-02-21T02:14:20.481Z,-21226.55
2019-02-21T02:16:48.777Z,-21199.47
2019-02-21T02:19:17.064Z,-21220.03
2019-02-21T02:21:45.357Z,-21228.53
2019-02-21T02:24:14.820Z,-21217.48
2019-02-21T02:26:43.841Z,-21202.59
2019-02-21T02:29:12.128Z,-21226.27
2019-02-21T02:31:40.663Z,-21210.67
2019-02-21T02:34:08.974Z,-21197.34
2019-02-21T02:36:37.376Z,-21204.86
2019-02-21T02:39:06.141Z,-21209.54
2019-02-21T02:41:34.406Z,-21205.00
2019-02-21T02:44:02.684Z,-21206.41
2019-02-21T02:46:30.995Z,-21190.95
2019-02-21T02:48:59.300Z,-21199.75
2019-02-21T02:51:27.590Z,-21217.19
2019-02-21T02:53:55.897Z,-21199.32
2019-02-21T02:56:24.172Z,-21207.41
2019-02-21T02:58:52.474Z,-21200.18
2019-02-21T03:01:20.818Z,-21203.15
2019-02-21T03:03:49.111Z,-21185.98
2019-02-21T03:06:17.408Z,-21204.86
2019-02-21T03:08:45.683Z,-21170.64
2019-02-21T03:11:13.965Z,-21174.48
2019-02-21T03:13:42.236Z,-21196.49
2019-02-21T03:16:10.560Z,-21206.70
2019-02-21T03:18:38.850Z,-21204.29
2019-02-21T03:21:07.148Z,-21200.88
2019-02-21T03:23:35.427Z,-21215.92
2019-02-21T03:26:03.758Z,-21227.54
2019-02-21T03:28:32.031Z,-21186.27
2019-02-21T03:31:00.339Z,-21168.51
2019-02-21T03:33:28.688Z,-21194.64
2019-02-21T03:35:57.521Z,-21177.46
2019-02-21T03:38:25.798Z,-21180.87
2019-02-21T03:40:54.058Z,-21177.46
2019-02-21T03:43:22.342Z,-21201.03
2019-02-21T03:45:50.626Z,-21179.59
2019-02-21T03:48:18.906Z,-21219.46
2019-02-21T03:50:47.211Z,-21218.89
2019-02-21T03:53:15.497Z,-21186.41
2019-02-21T03:55:43.797Z,-21210.53
2019-02-21T03:58:12.364Z,-21192.37
2019-02-21T04:00:40.655Z,-21214.64
2019-02-21T04:03:08.939Z,-21222.02
2019-02-21T04:05:37.213Z,-21193.93
2019-02-21T04:08:05.574Z,-21198.19
2019-02-21T04:10:33.865Z,-21223.15
2019-02-21T04:13:02.135Z,-21236.75
2019-02-21T04:15:30.582Z,-21207.83
2019-02-21T04:17:58.869Z,-21207.41
2019-02-21T04:20:27.153Z,-21201.88
2019-02-21T04:22:55.416Z,-21202.73
2019-02-21T04:25:23.810Z,-21209.11
2019-02-21T04:27:52.068Z,-21195.07
2019-02-21T04:30:20.364Z,-21203.02
2019-02-21T04:32:48.638Z,-21229.52
2019-02-21T04:35:16.925Z,-21229.10
2019-02-21T04:37:45.203Z,-21244.40
2019-02-21T04:40:13.470Z,-21226.69
2019-02-21T04:42:41.752Z,-21216.34
2019-02-21T04:45:10.079Z,-21199.75
2019-02-21T04:47:38.346Z,-21200.88
2019-02-21T04:50:06.995Z,-21174.48
2019-02-21T04:52:35.316Z,-21205.42
2019-02-21T04:55:03.887Z,-21218.47
2019-02-21T04:57:32.158Z,-21203.86
2019-02-21T05:00:00.459Z,-21196.91
2019-02-21T05:02:29.745Z,-21209.96
2019-02-21T05:04:58.061Z,-21207.13
2019-02-21T05:07:26.590Z,-21230.09
2019-02-21T05:09:58.247Z,-21230.94
2019-02-21T05:12:25.454Z,-21202.73
2019-02-21T05:14:53.739Z,-21198.47
2019-02-21T05:17:22.579Z,-21167.80
2019-02-21T05:19:50.858Z,-21188.26
2019-02-21T05:22:19.161Z,-21183.00
2019-02-21T05:24:47.441Z,-21166.10
2019-02-21T05:27:19.773Z,-21177.04
2019-02-21T05:29:48.067Z,-21177.88
2019-02-21T05:32:20.419Z,-21184.42
2019-02-21T05:34:52.815Z,-21170.64
2019-02-21T05:37:25.242Z,-21201.45
2019-02-21T05:39:55.153Z,-21182.29
2019-02-21T05:42:33.941Z,-21176.75
2019-02-21T05:45:10.973Z,-21174.76
2019-02-21T05:47:53.614Z,-21173.06
2019-02-21T05:50:26.250Z,-21161.13
2019-02-21T05:53:01.898Z,-21187.40
2019-02-21T05:55:43.615Z,-21180.02
2019-02-21T05:58:22.538Z,-21174.91
2019-02-21T06:01:08.589Z,-21190.95
2019-02-21T06:03:54.856Z,-21178.60
2019-02-21T06:06:41.132Z,-21183.86
2019-02-21T06:09:17.025Z,-21178.46
2019-02-21T06:11:46.969Z,-21176.61
2019-02-21T06:14:22.566Z,-21159.84
2019-02-21T06:16:58.394Z,-21170.93
2019-02-21T06:19:28.319Z,-21175.19
2019-02-21T06:22:09.729Z,-21178.88
2019-02-21T06:24:42.011Z,-21158.57
2019-02-21T06:27:26.756Z,-21170.07
2019-02-21T06:29:56.683Z,-21166.24
2019-02-21T06:32:24.954Z,-21181.73
2019-02-21T06:34:53.242Z,-21192.37
2019-02-21T06:37:21.524Z,-21182.29
2019-02-21T06:39:49.782Z,-21191.66
2019-02-21T06:42:18.086Z,-21177.32
2019-02-21T06:44:46.358Z,-21174.76
2019-02-21T06:47:15.753Z,-21199.89
2019-02-21T06:49:44.032Z,-21181.73
2019-02-21T06:52:12.312Z,-21195.35
2019-02-21T06:54:40.580Z,-21193.08
2019-02-21T06:57:08.908Z,-21177.18
2019-02-21T06:59:42.458Z,-21199.61
2019-02-21T07:02:07.208Z,-21213.64
2019-02-21T07:04:35.514Z,-21210.67
2019-02-21T07:07:03.791Z,-21188.68
2019-02-21T07:09:32.166Z,-21168.09
2019-02-21T07:12:00.476Z,-21207.13
2019-02-21T07:14:28.764Z,-21203.15
2019-02-21T07:16:57.024Z,-21168.37
2019-02-21T07:19:25.319Z,-21192.65
2019-02-21T07:21:53.594Z,-21192.37
2019-02-21T07:24:22.157Z,-21188.96
2019-02-21T07:26:50.448Z,-21178.88
2019-02-21T07:29:18.732Z,-21169.23
2019-02-21T07:31:49.299Z,-21199.47
2019-02-21T07:34:17.112Z,-21185.70
2019-02-21T07:36:45.412Z,-21198.19
2019-02-21T07:39:18.358Z,-21230.23
2019-02-21T07:41:43.733Z,-21212.37
2019-02-21T07:44:12.634Z,-21252.04
2019-02-21T07:46:40.949Z,-21216.34
2019-02-21T07:49:09.258Z,-21205.28
2019-02-21T07:51:37.583Z,-21173.77
2019-02-21T07:54:05.980Z,-21203.15
2019-02-21T07:56:41.546Z,-21206.70
2019-02-21T07:59:04.212Z,-21218.61
2019-02-21T08:01:32.494Z,-21207.41
2019-02-21T08:04:00.789Z,-21179.45
2019-02-21T08:06:29.075Z,-21173.48
2019-02-21T08:08:57.358Z,-21174.62
2019-02-21T08:11:25.656Z,-21190.25
2019-02-21T08:13:53.918Z,-21190.10
2019-02-21T08:16:22.209Z,-21192.23
2019-02-21T08:18:50.492Z,-21201.31
2019-02-21T08:21:18.791Z,-21196.06
2019-02-21T08:23:50.435Z,-21220.60
2019-02-21T08:26:19.885Z,-21203.86
2019-02-21T08:28:47.103Z,-21188.96
2019-02-21T08:31:15.568Z,-21184.71
2019-02-21T08:34:04.397Z,-21183.43
2019-02-21T08:36:32.806Z,-21202.73
2019-02-21T08:39:01.111Z,-21204.15
2019-02-21T08:41:29.387Z,-21205.28
2019-02-21T08:43:57.679Z,-21208.83
2019-02-21T08:46:25.964Z,-21201.03
2019-02-21T08:48:54.255Z,-21224.14
2019-02-21T08:51:22.523Z,-21212.65
2019-02-21T08:53:50.790Z,-21205.00
2019-02-21T08:56:19.072Z,-21216.05
2019-02-21T08:58:47.374Z,-21195.49
2019-02-21T09:01:15.651Z,-21208.12
2019-02-21T09:03:43.954Z,-21210.39
2019-02-21T09:06:12.219Z,-21219.74
2019-02-21T09:08:40.489Z,-21221.87
2019-02-21T09:11:08.784Z,-21207.41
2019-02-21T09:13:37.095Z,-21188.82
2019-02-21T09:16:05.389Z,-21220.60
2019-02-21T09:18:33.671Z,-21214.21
2019-02-21T09:21:01.938Z,-21213.64
2019-02-21T09:23:30.232Z,-21194.50
2019-02-21T09:25:58.519Z,-21230.38
2019-02-21T09:28:26.821Z,-21224.71
2019-02-21T09:30:55.108Z,-21217.76
2019-02-21T09:33:23.398Z,-21214.36
2019-02-21T09:35:51.678Z,-21235.05
2019-02-21T09:38:19.973Z,-21220.03
2019-02-21T09:40:48.251Z,-21235.62
2019-02-21T09:43:16.537Z,-21235.05
2019-02-21T09:45:44.820Z,-21226.41
2019-02-21T09:48:13.087Z,-21229.81
2019-02-21T09:50:41.384Z,-21236.89
2019-02-21T09:53:09.652Z,-21256.01
2019-02-21T09:55:38.055Z,-21263.93
2019-02-21T09:58:06.408Z,-21258.13
2019-02-21T10:00:35.982Z,-21247.66
2019-02-21T10:03:04.362Z,-21227.54
2019-02-21T10:05:32.726Z,-21246.24
2019-02-21T10:08:01.053Z,-21229.52
2019-02-21T10:10:29.328Z,-21236.47
2019-02-21T10:12:57.681Z,-21229.81
2019-02-21T10:15:25.956Z,-21228.53
2019-02-21T10:17:54.239Z,-21232.50
2019-02-21T10:20:22.879Z,-21220.60
2019-02-21T10:22:51.247Z,-21243.98
2019-02-21T10:25:23.322Z,-21231.23
2019-02-21T10:27:51.776Z,-21249.21
2019-02-21T10:30:21.779Z,-21232.50
2019-02-21T10:32:50.166Z,-21235.90
2019-02-21T10:35:18.467Z,-21264.07
2019-02-21T10:37:46.743Z,-21249.78
2019-02-21T10:40:15.958Z,-21233.35
2019-02-21T10:42:44.299Z,-21244.25
2019-02-21T10:45:20.909Z,-21243.12
2019-02-21T10:47:49.273Z,-21247.66
2019-02-21T10:50:19.016Z,-21232.36
2019-02-21T10:52:47.670Z,-21238.16
2019-02-21T10:55:16.924Z,-21259.12
2019-02-21T10:57:45.726Z,-21281.47
2019-02-21T11:00:20.210Z,-21256.57
2019-02-21T11:02:48.506Z,-21245.67
2019-02-21T11:05:16.815Z,-21244.68
2019-02-21T11:07:45.193Z,-21251.47
2019-02-21T11:10:19.460Z,-21247.93
2019-02-21T11:12:47.732Z,-21254.59
2019-02-21T11:15:18.428Z,-21273.55
2019-02-21T11:17:46.725Z,-21246.52
2019-02-21T11:20:17.045Z,-21268.04
2019-02-21T11:22:45.306Z,-21265.92
2019-02-21T11:25:13.674Z,-21270.86
2019-02-21T11:27:42.089Z,-21255.01
2019-02-21T11:30:15.673Z,-21258.84
2019-02-21T11:32:44.010Z,-21289.82
2019-02-21T11:35:12.358Z,-21292.64
2019-02-21T11:37:44.459Z,-21319.61
2019-02-21T11:43:16.005Z,-21263.80
2019-02-21T11:45:53.605Z,-21287.69
2019-02-21T11:48:14.346Z,-21287.12
2019-02-21T11:50:42.649Z,-21281.75
2019-02-21T11:53:10.980Z,-21292.50
2019-02-21T11:55:39.272Z,-21274.96
2019-02-21T11:58:07.567Z,-21258.56
2019-02-21T12:00:35.924Z,-21275.81
2019-02-21T12:03:08.549Z,-21276.10
2019-02-21T12:05:40.201Z,-21285.14
2019-02-21T12:08:08.574Z,-21282.04
2019-02-21T12:10:37.033Z,-21272.70
2019-02-21T12:13:05.399Z,-21259.69
2019-02-21T12:15:33.678Z,-21267.47
2019-02-21T12:18:01.955Z,-21272.99
2019-02-21T12:20:30.239Z,-21307.19
2019-02-21T12:22:58.514Z,-21289.11
2019-02-21T12:25:26.809Z,-21300.69
2019-02-21T12:27:55.086Z,-21300.97
2019-02-21T12:30:23.374Z,-21293.63
2019-02-21T12:32:51.634Z,-21292.36
2019-02-21T12:35:29.269Z,-21289.39
2019-02-21T12:37:49.921Z,-21308.04
2019-02-21T12:40:22.440Z,-21318.49
2019-02-21T12:42:50.704Z,-21319.48
2019-02-21T12:45:22.005Z,-21328.93
2019-02-21T12:47:53.571Z,-21360.93
2019-02-21T12:50:20.314Z,-21347.97
2019-02-21T12:52:48.628Z,-21312.13
2019-02-21T12:55:27.050Z,-21316.64
2019-02-21T12:57:46.903Z,-21292.21
2019-02-21T13:00:19.629Z,-21286.70
2019-02-21T13:02:47.962Z,-21278.79
2019-02-21T13:05:16.232Z,-21282.88
2019-02-21T13:07:44.524Z,-21300.69
2019-02-21T13:10:17.863Z,-21328.64
2019-02-21T13:12:46.153Z,-21324.41
2019-02-21T13:15:21.344Z,-21313.54
2019-02-21T13:18:01.779Z,-21307.04
2019-02-21T13:20:30.240Z,-21320.60
2019-02-21T13:22:58.541Z,-21326.53
2019-02-21T13:25:26.821Z,-21329.91
2019-02-21T13:27:55.105Z,-21314.81
2019-02-21T13:30:23.411Z,-21321.30
2019-02-21T13:32:51.682Z,-21319.48
2019-02-21T13:35:19.954Z,-21326.39
2019-02-21T13:37:48.228Z,-21342.46
2019-02-21T13:40:17.249Z,-21344.15
2019-02-21T13:42:45.534Z,-21355.15
2019-02-21T13:45:17.452Z,-21384.02
2019-02-21T13:47:45.575Z,-21379.66
2019-02-21T13:50:16.472Z,-21394.71
2019-02-21T13:52:44.814Z,-21385.99
2019-02-21T13:55:13.183Z,-21403.71
2019-02-21T13:57:41.532Z,-21376.28
2019-02-21T14:00:18.567Z,-21440.09
2019-02-21T14:02:46.851Z,-21409.90
2019-02-21T14:05:15.226Z,-21431.95
2019-02-21T14:07:43.534Z,-21429.85
2019-02-21T14:10:13.469Z,-21379.09
2019-02-21T14:12:41.831Z,-21444.17
2019-02-21T14:15:18.737Z,-21473.75
2019-02-21T14:17:47.080Z,-21456.51
2019-02-21T14:20:15.373Z,-21434.62
2019-02-21T14:22:43.710Z,-21387.25
2019-02-21T14:25:12.021Z,-21408.91
2019-02-21T14:27:40.298Z,-21422.27
2019-02-21T14:30:14.465Z,-21512.24
2019-02-21T14:32:42.740Z,-21468.15
2019-02-21T14:35:12.584Z,-21434.48
2019-02-21T14:37:40.854Z,-21464.78
2019-02-21T14:40:11.408Z,-21442.90
2019-02-21T14:42:40.283Z,-21478.79
2019-02-21T14:45:16.346Z,-21474.03
2019-02-21T14:47:44.627Z,-21515.88
2019-02-21T14:50:13.318Z,-21474.87
2019-02-21T14:52:41.617Z,-21493.92
2019-02-21T14:55:12.910Z,-21486.49
2019-02-21T14:57:41.489Z,-21498.26
2019-02-21T15:00:13.522Z,-21529.72
2019-02-21T15:02:41.818Z,-21535.73
2019-02-21T15:05:10.274Z,-21470.67
2019-02-21T15:07:38.482Z,-21468.84
2019-02-21T15:10:09.114Z,-21448.38
2019-02-21T15:12:37.408Z,-21435.18
2019-02-21T15:15:11.160Z,-21420.57
2019-02-21T15:17:39.458Z,-21407.93
2019-02-21T15:20:10.449Z,-21386.41
2019-02-21T15:22:38.756Z,-21368.11
2019-02-21T15:25:08.681Z,-21360.09
2019-02-21T15:27:37.003Z,-21377.69
2019-02-21T15:30:11.127Z,-21375.44
2019-02-21T15:32:39.397Z,-21373.18
2019-02-21T15:35:07.771Z,-21368.25
2019-02-21T15:37:36.112Z,-21389.93
2019-02-21T15:40:08.732Z,-21374.31
2019-02-21T15:42:36.453Z,-21357.83
2019-02-21T15:45:09.707Z,-21354.59
2019-02-21T15:47:37.915Z,-21382.90
2019-02-21T15:50:09.194Z,-21384.86
2019-02-21T15:52:37.498Z,-21371.92
2019-02-21T15:55:12.663Z,-21375.58
2019-02-21T15:57:39.188Z,-21377.13
2019-02-21T16:00:10.260Z,-21371.49
2019-02-21T16:02:38.554Z,-21365.86
2019-02-21T16:05:07.870Z,-21363.32
2019-02-21T16:07:36.142Z,-21354.59
2019-02-21T16:10:07.649Z,-21363.46
2019-02-21T16:12:36.128Z,-21357.83
2019-02-21T16:15:06.830Z,-21361.77
2019-02-21T16:17:37.075Z,-21359.94
2019-02-21T16:20:08.429Z,-21334.71
2019-02-21T16:22:36.896Z,-21348.67
2019-02-21T16:25:11.045Z,-21345.57
2019-02-21T16:27:39.378Z,-21340.77
2019-02-21T16:30:09.716Z,-21344.02
2019-02-21T16:32:38.002Z,-21340.21
2019-02-21T16:35:09.726Z,-21330.20
2019-02-21T16:37:39.651Z,-21348.53
2019-02-21T16:40:15.744Z,-21346.42
2019-02-21T16:42:44.081Z,-21348.25
2019-02-21T16:45:14.549Z,-21352.90
2019-02-21T16:47:42.908Z,-21361.35
2019-02-21T16:50:13.326Z,-21347.54
2019-02-21T16:52:41.634Z,-21339.22
2019-02-21T16:55:15.639Z,-21344.15
2019-02-21T16:57:43.961Z,-21340.49
2019-02-21T17:00:14.844Z,-21342.46
2019-02-21T17:02:43.131Z,-21335.13
2019-02-21T17:05:11.486Z,-21333.86
2019-02-21T17:07:39.796Z,-21330.34
2019-02-21T17:10:31.646Z,-21343.17
2019-02-21T17:12:59.941Z,-21338.09
2019-02-21T17:15:28.206Z,-21335.41
2019-02-21T17:17:56.587Z,-21325.26
2019-02-21T17:20:26.790Z,-21319.48
2019-02-21T17:22:55.133Z,-21318.63
2019-02-21T17:25:23.412Z,-21324.98
2019-02-21T17:27:51.689Z,-21320.60
2019-02-21T17:30:20.922Z,-21333.16
2019-02-21T17:32:49.259Z,-21327.52
2019-02-21T17:35:17.544Z,-21323.85
2019-02-21T17:37:45.904Z,-21344.72
2019-02-21T17:40:17.010Z,-21331.46
2019-02-21T17:42:45.385Z,-21338.80
2019-02-21T17:45:13.737Z,-21335.84
2019-02-21T17:47:42.007Z,-21340.07
2019-02-21T17:50:12.346Z,-21339.50
2019-02-21T17:52:40.648Z,-21337.81
2019-02-21T17:55:10.458Z,-21339.22
2019-02-21T17:57:38.822Z,-21325.26
2019-02-21T18:00:12.937Z,-21323.57
2019-02-21T18:02:41.207Z,-21321.88
2019-02-21T18:05:10.634Z,-21325.40
2019-02-21T18:07:38.916Z,-21321.59
2019-02-21T18:10:15.784Z,-21345.86
2019-02-21T18:12:44.060Z,-21334.00
2019-02-21T18:15:16.285Z,-21334.57
2019-02-21T18:17:44.536Z,-21329.07
2019-02-21T18:20:14.264Z,-21316.22
2019-02-21T18:22:42.567Z,-21338.37
2019-02-21T18:25:26.272Z,-21312.55
2019-02-21T18:27:54.610Z,-21321.73
2019-02-21T18:30:22.890Z,-21301.12
2019-02-21T18:32:51.173Z,-21315.66
2019-02-21T18:35:19.434Z,-21314.39
2019-02-21T18:37:48.073Z,-21350.78
2019-02-21T18:40:24.916Z,-21340.07
2019-02-21T18:42:53.201Z,-21344.02
2019-02-21T18:45:21.504Z,-21307.61
2019-02-21T18:47:49.849Z,-21316.93
2019-02-21T18:50:18.267Z,-21328.51
2019-02-21T18:52:46.569Z,-21329.63
2019-02-21T18:55:14.964Z,-21329.35
2019-02-21T18:57:43.265Z,-21314.25
2019-02-21T19:00:25.840Z,-21311.29
2019-02-21T19:02:54.245Z,-21328.93
2019-02-21T19:05:22.543Z,-21319.19
2019-02-21T19:08:00.383Z,-21322.16
2019-02-21T19:10:21.913Z,-21330.34
2019-02-21T19:12:50.197Z,-21307.19
2019-02-21T19:15:19.740Z,-21344.30
2019-02-21T19:17:48.097Z,-21330.90
2019-02-21T19:20:18.143Z,-21332.03
2019-02-21T19:22:46.405Z,-21316.50
2019-02-21T19:25:14.965Z,-21314.67
2019-02-21T19:27:43.267Z,-21330.76
2019-02-21T19:30:55.052Z,-21349.80
2019-02-21T19:33:23.429Z,-21332.73
2019-02-21T19:35:51.751Z,-21318.91
2019-02-21T19:38:20.090Z,-21314.67
2019-02-21T19:40:48.365Z,-21328.93
2019-02-21T19:43:16.671Z,-21320.74
2019-02-21T19:45:44.965Z,-21318.63
2019-02-21T19:48:13.268Z,-21330.62
2019-02-21T19:50:41.633Z,-21324.55
2019-02-21T19:53:09.946Z,-21313.54
2019-02-21T19:55:38.249Z,-21315.94
2019-02-21T19:58:06.709Z,-21305.78
2019-02-21T20:00:36.830Z,-21324.70
2019-02-21T20:03:05.326Z,-21309.17
2019-02-21T20:05:33.863Z,-21313.82
2019-02-21T20:08:08.664Z,-21329.07
2019-02-21T20:10:32.161Z,-21350.08
2019-02-21T20:13:02.222Z,-21315.09
2019-02-21T20:15:30.496Z,-21319.61
2019-02-21T20:17:58.828Z,-21312.27
2019-02-21T20:20:28.648Z,-21319.61
2019-02-21T20:22:56.927Z,-21323.71
2019-02-21T20:25:25.237Z,-21320.89
2019-02-21T20:27:53.513Z,-21316.93
2019-02-21T20:30:21.826Z,-21308.32
2019-02-21T20:32:50.081Z,-21331.32
2019-02-21T20:35:18.372Z,-21305.78
2019-02-21T20:37:46.648Z,-21318.77
2019-02-21T20:40:14.951Z,-21331.89
2019-02-21T20:42:43.216Z,-21304.79
2019-02-21T20:45:12.936Z,-21329.91
2019-02-21T20:47:41.406Z,-21337.25
2019-02-21T20:50:11.623Z,-21334.85
2019-02-21T20:52:39.983Z,-21324.55
2019-02-21T20:55:10.007Z,-21324.55
2019-02-21T20:57:38.290Z,-21349.80
2019-02-21T21:00:12.618Z,-21348.39
2019-02-21T21:02:40.957Z,-21339.50
2019-02-21T21:05:09.313Z,-21329.07
2019-02-21T21:07:37.651Z,-21344.86
2019-02-21T21:10:09.446Z,-21328.79
2019-02-21T21:12:37.873Z,-21329.21
2019-02-21T21:15:09.528Z,-21320.04
2019-02-21T21:17:37.679Z,-21355.44
2019-02-21T21:20:16.654Z,-21349.66
2019-02-21T21:22:38.827Z,-21350.08
2019-02-21T21:25:10.246Z,-21344.15
2019-02-21T21:27:38.810Z,-21342.75
2019-02-21T21:30:09.825Z,-21347.26
2019-02-21T21:32:38.132Z,-21348.39
2019-02-21T21:35:06.591Z,-21346.84
2019-02-21T21:37:34.888Z,-21362.62
2019-02-21T21:40:03.535Z,-21354.03
2019-02-21T21:42:31.852Z,-21352.62
2019-02-21T21:45:00.326Z,-21362.76
2019-02-21T21:47:28.671Z,-21322.02
2019-02-21T21:49:56.961Z,-21328.22
2019-02-21T21:52:25.292Z,-21339.08
2019-02-21T21:54:53.567Z,-21348.81
2019-02-21T21:57:21.862Z,-21357.27
2019-02-21T21:59:50.227Z,-21359.24
2019-02-21T22:02:18.499Z,-21338.52
2019-02-21T22:04:46.873Z,-21328.79
2019-02-21T22:07:16.835Z,-21318.20
2019-02-21T22:09:45.107Z,-21338.52
2019-02-21T22:12:13.397Z,-21324.13
2019-02-21T22:14:41.680Z,-21328.36
2019-02-21T22:17:09.958Z,-21322.16
2019-02-21T22:19:38.264Z,-21305.21
2019-02-21T22:22:06.555Z,-21350.93
2019-02-21T22:24:34.829Z,-21326.25
2019-02-21T22:27:03.104Z,-21327.52
2019-02-21T22:29:31.396Z,-21349.80
2019-02-21T22:31:59.755Z,-21367.13
2019-02-21T22:34:28.052Z,-21361.35
2019-02-21T22:36:56.326Z,-21365.30
2019-02-21T22:39:24.620Z,-21347.54
2019-02-21T22:41:52.882Z,-21324.83
2019-02-21T22:44:21.172Z,-21327.94
2019-02-21T22:46:49.447Z,-21317.21
2019-02-21T22:49:17.704Z,-21317.07
2019-02-21T22:51:45.994Z,-21312.41
2019-02-21T22:54:14.262Z,-21323.00
2019-02-21T22:56:42.825Z,-21313.40
2019-02-21T22:59:11.207Z,-21319.19
2019-02-21T23:01:39.553Z,-21310.86
2019-02-21T23:04:14.168Z,-21314.67
2019-02-21T23:06:54.663Z,-21319.90
2019-02-21T23:09:27.576Z,-21317.64
2019-02-21T23:11:54.325Z,-21306.20
2019-02-21T23:14:22.606Z,-21305.21
2019-02-21T23:16:50.872Z,-21298.15
2019-02-21T23:19:19.164Z,-21306.48
2019-02-21T23:21:47.452Z,-21294.76
2019-02-21T23:24:15.837Z,-21297.02
2019-02-21T23:26:44.112Z,-21306.63
2019-02-21T23:29:12.373Z,-21301.40
2019-02-21T23:31:40.736Z,-21301.40
2019-02-21T23:34:13.589Z,-21286.28
2019-02-21T23:36:41.872Z,-21303.94
2019-02-21T23:39:10.150Z,-21315.80
2019-02-21T23:41:38.428Z,-21310.57
2019-02-21T23:44:06.784Z,-21327.23
2019-02-21T23:46:35.068Z,-21332.17
2019-02-21T23:49:03.350Z,-21326.67
2019-02-21T23:51:31.644Z,-21332.73
2019-02-21T23:54:03.019Z,-21326.67
2019-02-21T23:56:29.953Z,-21311.99
2019-02-21T23:58:58.233Z,-21312.13
